首页
METAR-TAF:

METAR-TAF

机场 :

Spirit of St Louis Airport

圣路易斯, 密蘇里州, 美国

纬度: 38-39-26N, 经度: 090-39-21W, 海拔: 141米

当前天气观测

该预报发布于18分钟前的06:54 UTC
静风
温度 6°C
湿度 81%
气压 1020 hPa
能見度: 16.1公里
阴天层高于2600英尺

METAR: KSUS 050654Z AUTO 00000KT 10SM OVC026 06/03 A3012 RMK AO2 SLP202 T00610033

时间: 02:12 (07:12 UTC)

预报

该预报发布于1小时和52分钟前的05:20 UTC
预报有效从05日的 06点(UTC)到 06日的 06点(UTC)
风速3节,风向多变
能見度: 10公里
散云层高于1500英尺
阴天层高于4000英尺
短暂存在
从 05日的 06点(UTC)到 05日的 10点(UTC)
多云层高于1500英尺
从 05日的 1000点(UTC)
风速3节,风向多变
能見度: 10公里
阴天层高于1500英尺
从 05日的 1800点(UTC)
风速节,风向
能見度: 10公里
阴天层高于2000英尺
从 05日的 2100点(UTC)
风速3节,风向多变
能見度: 10公里
阴天层高于3500英尺

TAF: KSUS 050520Z 0506/0606 VRB03KT P6SM SCT015 OVC040 TEMPO 0506/0510 BKN015 FM051000 VRB03KT P6SM OVC015 FM051800 00000KT P6SM OVC020 FM052100 VRB03KT P6SM OVC035

超过4000个机场的气象观测和天气预报(METAR&TAF报告)。

可查询的气象台以黄色和红色小点在地图上表示。

将鼠标移到小点上方,可查看气象台名称。

然后点击查看天气观测和预报。

如需切换地图:点击带黑十字的绿色按钮放大地图;点击带横线的绿色按钮缩小地图;或者点击绿色箭头查看邻近地区的地图。


METAR-TAF: